sensor_id;sensor_type;location;lat;lon;timestamp;P1;durP1;ratioP1;P2;durP2;ratioP2
5831;SDS011;50943;51.448;7.646;2022-09-29T00:02:05;8.17;;;5.30;;
5831;SDS011;50943;51.448;7.646;2022-09-29T00:04:32;7.03;;;5.27;;
5831;SDS011;50943;51.448;7.646;2022-09-29T00:07:00;13.80;;;5.80;;
5831;SDS011;50943;51.448;7.646;2022-09-29T00:09:26;11.57;;;6.30;;
5831;SDS011;50943;51.448;7.646;2022-09-29T00:11:53;9.30;;;5.87;;
5831;SDS011;50943;51.448;7.646;2022-09-29T00:14:19;9.50;;;5.80;;
5831;SDS011;50943;51.448;7.646;2022-09-29T00:16:46;11.40;;;6.00;;
5831;SDS011;50943;51.448;7.646;2022-09-29T00:19:13;8.73;;;6.13;;
5831;SDS011;50943;51.448;7.646;2022-09-29T00:21:39;11.53;;;5.50;;
5831;SDS011;50943;51.448;7.646;2022-09-29T00:24:07;9.27;;;5.70;;
5831;SDS011;50943;51.448;7.646;2022-09-29T00:26:33;9.43;;;5.50;;
5831;SDS011;50943;51.448;7.646;2022-09-29T00:29:00;11.03;;;7.17;;
5831;SDS011;50943;51.448;7.646;2022-09-29T00:31:27;14.70;;;7.37;;
5831;SDS011;50943;51.448;7.646;2022-09-29T00:33:54;11.60;;;7.77;;
5831;SDS011;50943;51.448;7.646;2022-09-29T00:36:21;13.00;;;6.83;;
5831;SDS011;50943;51.448;7.646;2022-09-29T00:38:48;10.17;;;7.27;;
5831;SDS011;50943;51.448;7.646;2022-09-29T00:41:18;12.47;;;6.30;;
5831;SDS011;50943;51.448;7.646;2022-09-29T00:43:50;7.70;;;5.20;;
5831;SDS011;50943;51.448;7.646;2022-09-29T00:46:18;15.53;;;6.73;;
5831;SDS011;50943;51.448;7.646;2022-09-29T00:48:47;10.13;;;6.27;;
5831;SDS011;50943;51.448;7.646;2022-09-29T00:51:14;9.17;;;5.90;;
5831;SDS011;50943;51.448;7.646;2022-09-29T00:53:41;9.63;;;5.97;;
5831;SDS011;50943;51.448;7.646;2022-09-29T00:56:08;8.30;;;5.57;;
5831;SDS011;50943;51.448;7.646;2022-09-29T00:58:38;9.80;;;5.60;;
5831;SDS011;50943;51.448;7.646;2022-09-29T01:01:05;8.70;;;6.27;;
5831;SDS011;50943;51.448;7.646;2022-09-29T01:03:32;9.20;;;5.20;;
5831;SDS011;50943;51.448;7.646;2022-09-29T01:06:02;8.53;;;5.83;;
5831;SDS011;50943;51.448;7.646;2022-09-29T01:08:33;7.70;;;5.40;;
5831;SDS011;50943;51.448;7.646;2022-09-29T01:11:02;9.43;;;6.60;;
5831;SDS011;50943;51.448;7.646;2022-09-29T01:13:29;11.13;;;6.20;;
5831;SDS011;50943;51.448;7.646;2022-09-29T01:15:58;9.53;;;5.70;;
5831;SDS011;50943;51.448;7.646;2022-09-29T01:18:24;9.03;;;5.53;;
5831;SDS011;50943;51.448;7.646;2022-09-29T01:20:52;15.20;;;5.97;;
5831;SDS011;50943;51.448;7.646;2022-09-29T01:23:29;11.87;;;6.43;;
5831;SDS011;50943;51.448;7.646;2022-09-29T01:29:05;9.67;;;6.37;;
5831;SDS011;50943;51.448;7.646;2022-09-29T01:31:40;7.47;;;5.23;;
5831;SDS011;50943;51.448;7.646;2022-09-29T01:34:08;9.93;;;6.27;;
5831;SDS011;50943;51.448;7.646;2022-09-29T01:36:40;11.10;;;5.90;;
5831;SDS011;50943;51.448;7.646;2022-09-29T01:39:12;11.17;;;5.70;;
5831;SDS011;50943;51.448;7.646;2022-09-29T01:41:40;12.60;;;6.80;;
5831;SDS011;50943;51.448;7.646;2022-09-29T01:44:11;8.60;;;5.53;;
5831;SDS011;50943;51.448;7.646;2022-09-29T01:46:41;9.10;;;6.30;;
5831;SDS011;50943;51.448;7.646;2022-09-29T01:49:09;10.77;;;5.70;;
5831;SDS011;50943;51.448;7.646;2022-09-29T01:51:37;10.13;;;6.13;;
5831;SDS011;50943;51.448;7.646;2022-09-29T01:54:07;12.07;;;6.13;;
5831;SDS011;50943;51.448;7.646;2022-09-29T01:56:35;11.27;;;6.60;;
5831;SDS011;50943;51.448;7.646;2022-09-29T01:59:04;9.30;;;6.23;;
5831;SDS011;50943;51.448;7.646;2022-09-29T02:01:33;9.90;;;6.60;;
5831;SDS011;50943;51.448;7.646;2022-09-29T02:04:02;11.20;;;6.30;;
5831;SDS011;50943;51.448;7.646;2022-09-29T02:06:31;10.10;;;6.10;;
5831;SDS011;50943;51.448;7.646;2022-09-29T02:09:00;14.90;;;6.80;;
5831;SDS011;50943;51.448;7.646;2022-09-29T02:11:28;17.20;;;6.67;;
5831;SDS011;50943;51.448;7.646;2022-09-29T02:13:58;14.63;;;7.20;;
5831;SDS011;50943;51.448;7.646;2022-09-29T02:16:25;10.80;;;6.37;;
5831;SDS011;50943;51.448;7.646;2022-09-29T02:18:54;12.07;;;6.77;;
5831;SDS011;50943;51.448;7.646;2022-09-29T02:21:24;11.07;;;6.73;;
5831;SDS011;50943;51.448;7.646;2022-09-29T02:23:52;12.30;;;6.27;;
5831;SDS011;50943;51.448;7.646;2022-09-29T02:26:19;11.07;;;6.80;;
5831;SDS011;50943;51.448;7.646;2022-09-29T02:28:45;13.30;;;7.40;;
5831;SDS011;50943;51.448;7.646;2022-09-29T02:31:12;13.20;;;7.90;;
5831;SDS011;50943;51.448;7.646;2022-09-29T02:33:39;12.63;;;7.37;;
5831;SDS011;50943;51.448;7.646;2022-09-29T02:36:08;14.93;;;8.63;;
5831;SDS011;50943;51.448;7.646;2022-09-29T02:38:41;15.00;;;8.40;;
5831;SDS011;50943;51.448;7.646;2022-09-29T02:41:12;16.40;;;9.00;;
5831;SDS011;50943;51.448;7.646;2022-09-29T02:43:45;12.67;;;8.10;;
5831;SDS011;50943;51.448;7.646;2022-09-29T02:46:18;13.80;;;8.00;;
5831;SDS011;50943;51.448;7.646;2022-09-29T02:48:54;12.13;;;7.30;;
5831;SDS011;50943;51.448;7.646;2022-09-29T02:51:26;14.43;;;7.10;;
5831;SDS011;50943;51.448;7.646;2022-09-29T02:54:00;12.17;;;6.83;;
5831;SDS011;50943;51.448;7.646;2022-09-29T02:56:33;12.37;;;6.87;;
5831;SDS011;50943;51.448;7.646;2022-09-29T02:59:03;12.93;;;8.20;;
5831;SDS011;50943;51.448;7.646;2022-09-29T03:01:30;10.73;;;6.27;;
5831;SDS011;50943;51.448;7.646;2022-09-29T03:03:57;13.90;;;6.80;;
5831;SDS011;50943;51.448;7.646;2022-09-29T03:06:23;13.73;;;7.07;;
5831;SDS011;50943;51.448;7.646;2022-09-29T03:08:50;13.90;;;6.70;;
5831;SDS011;50943;51.448;7.646;2022-09-29T03:11:18;13.23;;;6.60;;
5831;SDS011;50943;51.448;7.646;2022-09-29T03:13:44;10.53;;;6.73;;
5831;SDS011;50943;51.448;7.646;2022-09-29T03:16:11;11.47;;;5.90;;
5831;SDS011;50943;51.448;7.646;2022-09-29T03:18:37;11.20;;;6.83;;
5831;SDS011;50943;51.448;7.646;2022-09-29T03:21:03;11.00;;;6.90;;
5831;SDS011;50943;51.448;7.646;2022-09-29T03:23:30;8.87;;;6.13;;
5831;SDS011;50943;51.448;7.646;2022-09-29T03:25:56;11.07;;;6.53;;
5831;SDS011;50943;51.448;7.646;2022-09-29T03:28:24;10.70;;;6.70;;
5831;SDS011;50943;51.448;7.646;2022-09-29T03:30:51;10.30;;;6.43;;
5831;SDS011;50943;51.448;7.646;2022-09-29T03:33:19;12.93;;;7.23;;
5831;SDS011;50943;51.448;7.646;2022-09-29T03:35:45;15.13;;;8.30;;
5831;SDS011;50943;51.448;7.646;2022-09-29T03:38:12;16.90;;;8.87;;
5831;SDS011;50943;51.448;7.646;2022-09-29T03:40:38;18.07;;;8.70;;
5831;SDS011;50943;51.448;7.646;2022-09-29T03:43:05;15.20;;;8.50;;
5831;SDS011;50943;51.448;7.646;2022-09-29T03:45:32;15.57;;;8.77;;
5831;SDS011;50943;51.448;7.646;2022-09-29T03:47:59;14.47;;;8.10;;
5831;SDS011;50943;51.448;7.646;2022-09-29T03:50:25;12.73;;;7.37;;
5831;SDS011;50943;51.448;7.646;2022-09-29T03:52:51;16.70;;;9.00;;
5831;SDS011;50943;51.448;7.646;2022-09-29T03:55:18;14.63;;;7.90;;
5831;SDS011;50943;51.448;7.646;2022-09-29T03:57:44;13.10;;;7.97;;
5831;SDS011;50943;51.448;7.646;2022-09-29T04:00:11;11.97;;;7.70;;
5831;SDS011;50943;51.448;7.646;2022-09-29T04:02:39;15.07;;;7.90;;
5831;SDS011;50943;51.448;7.646;2022-09-29T04:05:05;13.27;;;7.30;;
5831;SDS011;50943;51.448;7.646;2022-09-29T04:07:32;12.93;;;7.47;;
5831;SDS011;50943;51.448;7.646;2022-09-29T04:09:58;12.60;;;6.23;;
5831;SDS011;50943;51.448;7.646;2022-09-29T04:12:24;10.40;;;6.03;;
5831;SDS011;50943;51.448;7.646;2022-09-29T04:14:51;8.50;;;5.07;;
5831;SDS011;50943;51.448;7.646;2022-09-29T04:17:17;11.10;;;6.43;;
5831;SDS011;50943;51.448;7.646;2022-09-29T04:19:45;8.60;;;4.93;;
5831;SDS011;50943;51.448;7.646;2022-09-29T04:22:13;7.77;;;4.83;;
5831;SDS011;50943;51.448;7.646;2022-09-29T04:24:40;7.40;;;4.63;;
5831;SDS011;50943;51.448;7.646;2022-09-29T04:27:06;12.90;;;5.77;;
5831;SDS011;50943;51.448;7.646;2022-09-29T04:29:33;10.43;;;6.60;;
5831;SDS011;50943;51.448;7.646;2022-09-29T04:31:59;12.50;;;7.67;;
5831;SDS011;50943;51.448;7.646;2022-09-29T04:34:26;12.60;;;7.17;;
5831;SDS011;50943;51.448;7.646;2022-09-29T04:36:53;10.00;;;6.37;;
5831;SDS011;50943;51.448;7.646;2022-09-29T04:39:20;8.90;;;5.40;;
5831;SDS011;50943;51.448;7.646;2022-09-29T04:41:46;9.73;;;5.70;;
5831;SDS011;50943;51.448;7.646;2022-09-29T04:44:13;10.00;;;6.63;;
5831;SDS011;50943;51.448;7.646;2022-09-29T04:46:39;10.77;;;6.47;;
5831;SDS011;50943;51.448;7.646;2022-09-29T04:49:06;11.57;;;6.20;;
5831;SDS011;50943;51.448;7.646;2022-09-29T04:51:32;10.60;;;6.20;;
5831;SDS011;50943;51.448;7.646;2022-09-29T04:54:00;9.40;;;5.60;;
5831;SDS011;50943;51.448;7.646;2022-09-29T04:56:26;10.67;;;6.20;;
5831;SDS011;50943;51.448;7.646;2022-09-29T04:58:55;8.53;;;5.50;;
5831;SDS011;50943;51.448;7.646;2022-09-29T05:01:21;10.63;;;6.43;;
5831;SDS011;50943;51.448;7.646;2022-09-29T05:03:48;10.93;;;6.10;;
5831;SDS011;50943;51.448;7.646;2022-09-29T05:06:14;12.20;;;6.23;;
5831;SDS011;50943;51.448;7.646;2022-09-29T05:08:41;10.70;;;6.57;;
5831;SDS011;50943;51.448;7.646;2022-09-29T05:11:09;11.53;;;6.97;;
5831;SDS011;50943;51.448;7.646;2022-09-29T05:13:35;11.80;;;7.73;;
5831;SDS011;50943;51.448;7.646;2022-09-29T05:16:02;14.00;;;7.70;;
5831;SDS011;50943;51.448;7.646;2022-09-29T05:18:29;13.47;;;7.43;;
5831;SDS011;50943;51.448;7.646;2022-09-29T05:20:56;16.10;;;8.17;;
5831;SDS011;50943;51.448;7.646;2022-09-29T05:23:27;13.93;;;8.57;;
5831;SDS011;50943;51.448;7.646;2022-09-29T05:25:53;14.13;;;8.90;;
5831;SDS011;50943;51.448;7.646;2022-09-29T05:28:21;18.67;;;9.70;;
5831;SDS011;50943;51.448;7.646;2022-09-29T05:30:47;25.73;;;11.90;;
5831;SDS011;50943;51.448;7.646;2022-09-29T05:33:13;16.80;;;9.80;;
5831;SDS011;50943;51.448;7.646;2022-09-29T05:35:40;19.23;;;11.03;;
5831;SDS011;50943;51.448;7.646;2022-09-29T05:38:06;18.67;;;10.53;;
5831;SDS011;50943;51.448;7.646;2022-09-29T05:40:32;18.83;;;10.67;;
5831;SDS011;50943;51.448;7.646;2022-09-29T05:42:59;18.87;;;9.93;;
5831;SDS011;50943;51.448;7.646;2022-09-29T05:45:27;18.37;;;9.63;;
5831;SDS011;50943;51.448;7.646;2022-09-29T05:47:53;15.80;;;9.57;;
5831;SDS011;50943;51.448;7.646;2022-09-29T05:50:20;20.57;;;11.30;;
5831;SDS011;50943;51.448;7.646;2022-09-29T05:52:47;17.10;;;9.17;;
5831;SDS011;50943;51.448;7.646;2022-09-29T05:55:14;17.13;;;10.20;;
5831;SDS011;50943;51.448;7.646;2022-09-29T05:57:41;17.47;;;10.17;;
5831;SDS011;50943;51.448;7.646;2022-09-29T06:00:07;18.10;;;9.80;;
5831;SDS011;50943;51.448;7.646;2022-09-29T06:02:35;31.67;;;15.17;;
5831;SDS011;50943;51.448;7.646;2022-09-29T06:05:02;20.07;;;11.70;;
5831;SDS011;50943;51.448;7.646;2022-09-29T06:07:28;16.07;;;8.70;;
5831;SDS011;50943;51.448;7.646;2022-09-29T06:09:55;19.87;;;9.83;;
5831;SDS011;50943;51.448;7.646;2022-09-29T06:12:21;16.80;;;9.77;;
5831;SDS011;50943;51.448;7.646;2022-09-29T06:14:47;20.40;;;8.93;;
5831;SDS011;50943;51.448;7.646;2022-09-29T06:17:13;12.13;;;8.00;;
5831;SDS011;50943;51.448;7.646;2022-09-29T06:19:41;13.27;;;7.97;;
5831;SDS011;50943;51.448;7.646;2022-09-29T06:22:07;11.63;;;7.00;;
5831;SDS011;50943;51.448;7.646;2022-09-29T06:24:34;11.50;;;7.30;;
5831;SDS011;50943;51.448;7.646;2022-09-29T06:27:00;15.20;;;7.80;;
5831;SDS011;50943;51.448;7.646;2022-09-29T06:29:26;14.50;;;7.57;;
5831;SDS011;50943;51.448;7.646;2022-09-29T06:31:53;16.23;;;7.57;;
5831;SDS011;50943;51.448;7.646;2022-09-29T06:34:20;14.83;;;8.10;;
5831;SDS011;50943;51.448;7.646;2022-09-29T06:36:47;12.83;;;8.03;;
5831;SDS011;50943;51.448;7.646;2022-09-29T06:39:31;12.90;;;7.47;;
5831;SDS011;50943;51.448;7.646;2022-09-29T06:41:58;13.43;;;8.40;;
5831;SDS011;50943;51.448;7.646;2022-09-29T06:44:25;14.07;;;8.30;;
5831;SDS011;50943;51.448;7.646;2022-09-29T06:46:55;15.57;;;8.57;;
5831;SDS011;50943;51.448;7.646;2022-09-29T06:49:22;17.57;;;9.80;;
5831;SDS011;50943;51.448;7.646;2022-09-29T06:51:50;12.70;;;8.13;;
5831;SDS011;50943;51.448;7.646;2022-09-29T06:54:17;13.63;;;7.80;;
5831;SDS011;50943;51.448;7.646;2022-09-29T06:56:45;11.60;;;7.00;;
5831;SDS011;50943;51.448;7.646;2022-09-29T06:59:11;15.80;;;8.50;;
5831;SDS011;50943;51.448;7.646;2022-09-29T07:01:38;11.37;;;7.43;;
5831;SDS011;50943;51.448;7.646;2022-09-29T07:04:04;14.07;;;8.90;;
5831;SDS011;50943;51.448;7.646;2022-09-29T07:06:30;12.80;;;8.57;;
5831;SDS011;50943;51.448;7.646;2022-09-29T07:08:58;13.17;;;8.30;;
5831;SDS011;50943;51.448;7.646;2022-09-29T07:11:25;20.40;;;10.03;;
5831;SDS011;50943;51.448;7.646;2022-09-29T07:13:52;19.27;;;10.37;;
5831;SDS011;50943;51.448;7.646;2022-09-29T07:16:18;18.00;;;9.50;;
5831;SDS011;50943;51.448;7.646;2022-09-29T07:18:47;17.50;;;9.93;;
5831;SDS011;50943;51.448;7.646;2022-09-29T07:21:14;20.47;;;10.67;;
5831;SDS011;50943;51.448;7.646;2022-09-29T07:23:42;16.23;;;9.50;;
5831;SDS011;50943;51.448;7.646;2022-09-29T07:26:10;21.73;;;10.53;;
5831;SDS011;50943;51.448;7.646;2022-09-29T07:28:38;18.17;;;10.57;;
5831;SDS011;50943;51.448;7.646;2022-09-29T07:31:05;15.40;;;10.40;;
5831;SDS011;50943;51.448;7.646;2022-09-29T07:33:32;13.97;;;9.90;;
5831;SDS011;50943;51.448;7.646;2022-09-29T07:35:59;16.13;;;9.70;;
5831;SDS011;50943;51.448;7.646;2022-09-29T07:38:26;19.10;;;10.33;;
5831;SDS011;50943;51.448;7.646;2022-09-29T07:40:52;15.70;;;10.00;;
5831;SDS011;50943;51.448;7.646;2022-09-29T07:43:20;21.23;;;11.00;;
5831;SDS011;50943;51.448;7.646;2022-09-29T07:45:47;22.03;;;12.33;;
5831;SDS011;50943;51.448;7.646;2022-09-29T07:48:14;18.10;;;11.07;;
5831;SDS011;50943;51.448;7.646;2022-09-29T07:50:40;20.97;;;11.60;;
5831;SDS011;50943;51.448;7.646;2022-09-29T07:53:07;24.00;;;12.33;;
5831;SDS011;50943;51.448;7.646;2022-09-29T07:55:33;20.10;;;13.03;;
5831;SDS011;50943;51.448;7.646;2022-09-29T07:57:59;20.63;;;11.67;;
5831;SDS011;50943;51.448;7.646;2022-09-29T08:00:28;21.70;;;11.90;;
5831;SDS011;50943;51.448;7.646;2022-09-29T08:02:57;22.03;;;11.03;;
5831;SDS011;50943;51.448;7.646;2022-09-29T08:05:24;18.70;;;12.80;;
5831;SDS011;50943;51.448;7.646;2022-09-29T08:07:51;16.93;;;12.20;;
5831;SDS011;50943;51.448;7.646;2022-09-29T08:10:18;20.07;;;12.27;;
5831;SDS011;50943;51.448;7.646;2022-09-29T08:12:44;16.23;;;11.10;;
5831;SDS011;50943;51.448;7.646;2022-09-29T08:15:10;16.00;;;11.30;;
5831;SDS011;50943;51.448;7.646;2022-09-29T08:17:38;17.83;;;11.27;;
5831;SDS011;50943;51.448;7.646;2022-09-29T08:20:05;15.60;;;11.83;;
5831;SDS011;50943;51.448;7.646;2022-09-29T08:22:31;15.27;;;11.30;;
5831;SDS011;50943;51.448;7.646;2022-09-29T08:24:57;13.93;;;10.83;;
5831;SDS011;50943;51.448;7.646;2022-09-29T08:27:24;14.10;;;10.00;;
5831;SDS011;50943;51.448;7.646;2022-09-29T08:29:50;16.00;;;10.27;;
5831;SDS011;50943;51.448;7.646;2022-09-29T08:32:16;15.40;;;10.37;;
5831;SDS011;50943;51.448;7.646;2022-09-29T08:34:44;12.60;;;9.60;;
5831;SDS011;50943;51.448;7.646;2022-09-29T08:37:11;13.03;;;9.03;;
5831;SDS011;50943;51.448;7.646;2022-09-29T08:39:37;11.47;;;7.97;;
5831;SDS011;50943;51.448;7.646;2022-09-29T08:42:04;12.47;;;8.47;;
5831;SDS011;50943;51.448;7.646;2022-09-29T08:44:34;10.97;;;8.27;;
5831;SDS011;50943;51.448;7.646;2022-09-29T08:47:03;10.00;;;7.93;;
5831;SDS011;50943;51.448;7.646;2022-09-29T08:49:31;13.37;;;9.00;;
5831;SDS011;50943;51.448;7.646;2022-09-29T08:52:03;10.27;;;8.73;;
5831;SDS011;50943;51.448;7.646;2022-09-29T08:54:32;11.30;;;9.20;;
5831;SDS011;50943;51.448;7.646;2022-09-29T08:56:59;13.73;;;9.97;;
5831;SDS011;50943;51.448;7.646;2022-09-29T08:59:25;12.60;;;11.30;;
5831;SDS011;50943;51.448;7.646;2022-09-29T09:01:57;11.40;;;8.07;;
5831;SDS011;50943;51.448;7.646;2022-09-29T09:04:31;11.23;;;9.00;;
5831;SDS011;50943;51.448;7.646;2022-09-29T09:07:04;10.27;;;7.90;;
5831;SDS011;50943;51.448;7.646;2022-09-29T09:09:37;8.43;;;7.53;;
5831;SDS011;50943;51.448;7.646;2022-09-29T09:12:10;7.63;;;6.83;;
5831;SDS011;50943;51.448;7.646;2022-09-29T09:14:47;9.97;;;6.80;;
5831;SDS011;50943;51.448;7.646;2022-09-29T09:17:20;10.53;;;5.97;;
5831;SDS011;50943;51.448;7.646;2022-09-29T09:19:53;10.10;;;6.40;;
5831;SDS011;50943;51.448;7.646;2022-09-29T09:22:22;7.20;;;5.33;;
5831;SDS011;50943;51.448;7.646;2022-09-29T09:24:54;7.23;;;5.23;;
5831;SDS011;50943;51.448;7.646;2022-09-29T09:27:22;8.03;;;6.30;;
5831;SDS011;50943;51.448;7.646;2022-09-29T09:29:50;7.10;;;5.73;;
5831;SDS011;50943;51.448;7.646;2022-09-29T09:32:19;7.00;;;5.00;;
5831;SDS011;50943;51.448;7.646;2022-09-29T09:34:48;6.80;;;5.27;;
5831;SDS011;50943;51.448;7.646;2022-09-29T09:37:18;10.27;;;5.20;;
5831;SDS011;50943;51.448;7.646;2022-09-29T09:39:47;6.33;;;4.80;;
5831;SDS011;50943;51.448;7.646;2022-09-29T09:42:17;7.70;;;4.80;;
5831;SDS011;50943;51.448;7.646;2022-09-29T09:44:44;5.80;;;4.10;;
5831;SDS011;50943;51.448;7.646;2022-09-29T09:47:16;5.60;;;4.67;;
5831;SDS011;50943;51.448;7.646;2022-09-29T09:49:47;6.40;;;4.80;;
5831;SDS011;50943;51.448;7.646;2022-09-29T09:52:17;4.20;;;3.70;;
5831;SDS011;50943;51.448;7.646;2022-09-29T09:54:48;7.13;;;4.57;;
5831;SDS011;50943;51.448;7.646;2022-09-29T09:57:24;4.50;;;3.50;;
5831;SDS011;50943;51.448;7.646;2022-09-29T09:59:58;14.90;;;4.47;;
5831;SDS011;50943;51.448;7.646;2022-09-29T10:02:27;5.50;;;4.00;;
5831;SDS011;50943;51.448;7.646;2022-09-29T10:04:54;5.20;;;4.10;;
5831;SDS011;50943;51.448;7.646;2022-09-29T10:07:21;7.87;;;4.20;;
5831;SDS011;50943;51.448;7.646;2022-09-29T10:09:49;7.17;;;4.50;;
5831;SDS011;50943;51.448;7.646;2022-09-29T10:12:16;5.37;;;3.60;;
5831;SDS011;50943;51.448;7.646;2022-09-29T10:14:44;5.00;;;4.00;;
5831;SDS011;50943;51.448;7.646;2022-09-29T10:17:14;6.50;;;3.73;;
5831;SDS011;50943;51.448;7.646;2022-09-29T10:19:52;4.53;;;3.50;;
5831;SDS011;50943;51.448;7.646;2022-09-29T10:22:19;7.53;;;3.07;;
5831;SDS011;50943;51.448;7.646;2022-09-29T10:24:46;5.53;;;3.10;;
5831;SDS011;50943;51.448;7.646;2022-09-29T10:27:17;5.23;;;3.57;;
5831;SDS011;50943;51.448;7.646;2022-09-29T10:29:45;4.07;;;2.67;;
5831;SDS011;50943;51.448;7.646;2022-09-29T10:32:14;4.27;;;2.90;;
5831;SDS011;50943;51.448;7.646;2022-09-29T10:34:43;6.33;;;2.20;;
5831;SDS011;50943;51.448;7.646;2022-09-29T10:37:18;5.50;;;2.53;;
5831;SDS011;50943;51.448;7.646;2022-09-29T10:39:47;3.67;;;2.80;;
5831;SDS011;50943;51.448;7.646;2022-09-29T10:42:15;5.17;;;3.20;;
5831;SDS011;50943;51.448;7.646;2022-09-29T10:44:44;6.80;;;2.87;;
5831;SDS011;50943;51.448;7.646;2022-09-29T10:47:15;7.13;;;2.53;;
5831;SDS011;50943;51.448;7.646;2022-09-29T10:49:41;6.70;;;3.10;;
5831;SDS011;50943;51.448;7.646;2022-09-29T10:52:14;6.00;;;3.60;;
5831;SDS011;50943;51.448;7.646;2022-09-29T10:54:51;7.13;;;3.33;;
5831;SDS011;50943;51.448;7.646;2022-09-29T10:57:19;5.20;;;3.47;;
5831;SDS011;50943;51.448;7.646;2022-09-29T10:59:49;7.53;;;3.10;;
5831;SDS011;50943;51.448;7.646;2022-09-29T11:02:20;5.90;;;2.40;;
5831;SDS011;50943;51.448;7.646;2022-09-29T11:04:48;4.10;;;2.60;;
5831;SDS011;50943;51.448;7.646;2022-09-29T11:07:15;4.67;;;2.20;;
5831;SDS011;50943;51.448;7.646;2022-09-29T11:09:42;5.13;;;2.33;;
5831;SDS011;50943;51.448;7.646;2022-09-29T11:12:23;6.40;;;2.80;;
5831;SDS011;50943;51.448;7.646;2022-09-29T11:14:51;5.70;;;2.57;;
5831;SDS011;50943;51.448;7.646;2022-09-29T11:17:19;3.50;;;2.43;;
5831;SDS011;50943;51.448;7.646;2022-09-29T11:19:46;5.97;;;2.60;;
5831;SDS011;50943;51.448;7.646;2022-09-29T11:27:57;3.60;;;2.20;;
5831;SDS011;50943;51.448;7.646;2022-09-29T11:30:30;2.70;;;2.23;;
5831;SDS011;50943;51.448;7.646;2022-09-29T11:33:08;3.57;;;2.00;;
5831;SDS011;50943;51.448;7.646;2022-09-29T11:35:39;2.73;;;1.73;;
5831;SDS011;50943;51.448;7.646;2022-09-29T11:38:14;4.57;;;2.23;;
5831;SDS011;50943;51.448;7.646;2022-09-29T11:40:46;3.80;;;2.13;;
5831;SDS011;50943;51.448;7.646;2022-09-29T11:43:22;3.33;;;1.60;;
5831;SDS011;50943;51.448;7.646;2022-09-29T11:45:55;5.27;;;1.97;;
5831;SDS011;50943;51.448;7.646;2022-09-29T11:51:08;3.67;;;1.73;;
5831;SDS011;50943;51.448;7.646;2022-09-29T11:53:51;3.97;;;1.87;;
5831;SDS011;50943;51.448;7.646;2022-09-29T11:56:27;4.03;;;2.00;;
5831;SDS011;50943;51.448;7.646;2022-09-29T11:59:00;3.10;;;1.80;;
5831;SDS011;50943;51.448;7.646;2022-09-29T12:01:37;3.90;;;2.20;;
5831;SDS011;50943;51.448;7.646;2022-09-29T12:04:16;3.60;;;1.80;;
5831;SDS011;50943;51.448;7.646;2022-09-29T12:06:54;2.90;;;1.67;;
5831;SDS011;50943;51.448;7.646;2022-09-29T12:12:04;3.33;;;1.80;;
5831;SDS011;50943;51.448;7.646;2022-09-29T12:14:35;1.60;;;1.40;;
5831;SDS011;50943;51.448;7.646;2022-09-29T12:17:08;5.60;;;2.20;;
5831;SDS011;50943;51.448;7.646;2022-09-29T12:19:38;4.60;;;1.80;;
5831;SDS011;50943;51.448;7.646;2022-09-29T12:22:07;6.00;;;1.67;;
5831;SDS011;50943;51.448;7.646;2022-09-29T12:24:34;4.57;;;2.30;;
5831;SDS011;50943;51.448;7.646;2022-09-29T12:27:03;4.83;;;2.13;;
5831;SDS011;50943;51.448;7.646;2022-09-29T12:29:32;3.70;;;1.90;;
5831;SDS011;50943;51.448;7.646;2022-09-29T12:32:02;4.50;;;2.20;;
5831;SDS011;50943;51.448;7.646;2022-09-29T12:34:34;3.80;;;2.17;;
5831;SDS011;50943;51.448;7.646;2022-09-29T12:37:04;3.80;;;2.20;;
5831;SDS011;50943;51.448;7.646;2022-09-29T12:39:37;6.90;;;1.90;;
5831;SDS011;50943;51.448;7.646;2022-09-29T12:44:51;4.23;;;1.70;;
5831;SDS011;50943;51.448;7.646;2022-09-29T12:47:22;6.33;;;1.80;;
5831;SDS011;50943;51.448;7.646;2022-09-29T12:49:56;6.17;;;1.93;;
5831;SDS011;50943;51.448;7.646;2022-09-29T12:52:31;3.97;;;2.10;;
5831;SDS011;50943;51.448;7.646;2022-09-29T12:54:59;8.97;;;2.00;;
5831;SDS011;50943;51.448;7.646;2022-09-29T12:57:31;5.53;;;2.17;;
5831;SDS011;50943;51.448;7.646;2022-09-29T12:59:58;5.83;;;1.77;;
5831;SDS011;50943;51.448;7.646;2022-09-29T13:02:32;6.47;;;2.63;;
5831;SDS011;50943;51.448;7.646;2022-09-29T13:05:20;4.10;;;2.20;;
5831;SDS011;50943;51.448;7.646;2022-09-29T13:10:36;4.50;;;2.03;;
5831;SDS011;50943;51.448;7.646;2022-09-29T13:13:12;7.80;;;2.70;;
5831;SDS011;50943;51.448;7.646;2022-09-29T13:15:45;5.43;;;2.07;;
5831;SDS011;50943;51.448;7.646;2022-09-29T13:18:18;4.80;;;1.80;;
5831;SDS011;50943;51.448;7.646;2022-09-29T13:20:54;4.03;;;1.97;;
5831;SDS011;50943;51.448;7.646;2022-09-29T13:23:36;4.60;;;2.43;;
5831;SDS011;50943;51.448;7.646;2022-09-29T13:26:16;3.70;;;1.70;;
5831;SDS011;50943;51.448;7.646;2022-09-29T13:28:48;2.33;;;1.50;;
5831;SDS011;50943;51.448;7.646;2022-09-29T13:31:16;3.37;;;1.70;;
5831;SDS011;50943;51.448;7.646;2022-09-29T13:33:45;3.47;;;1.90;;
5831;SDS011;50943;51.448;7.646;2022-09-29T13:36:21;2.80;;;1.30;;
5831;SDS011;50943;51.448;7.646;2022-09-29T13:38:52;3.00;;;1.40;;
5831;SDS011;50943;51.448;7.646;2022-09-29T13:41:31;4.60;;;1.40;;
5831;SDS011;50943;51.448;7.646;2022-09-29T13:44:01;4.87;;;1.13;;
5831;SDS011;50943;51.448;7.646;2022-09-29T13:46:34;3.00;;;1.53;;
5831;SDS011;50943;51.448;7.646;2022-09-29T13:49:02;2.83;;;1.50;;
5831;SDS011;50943;51.448;7.646;2022-09-29T13:54:20;4.90;;;1.37;;
5831;SDS011;50943;51.448;7.646;2022-09-29T13:56:48;4.03;;;1.80;;
5831;SDS011;50943;51.448;7.646;2022-09-29T13:59:16;3.27;;;1.60;;
5831;SDS011;50943;51.448;7.646;2022-09-29T14:01:44;3.90;;;1.63;;
5831;SDS011;50943;51.448;7.646;2022-09-29T14:04:33;3.20;;;1.43;;
5831;SDS011;50943;51.448;7.646;2022-09-29T14:07:00;5.00;;;1.70;;
5831;SDS011;50943;51.448;7.646;2022-09-29T14:09:29;4.47;;;1.60;;
5831;SDS011;50943;51.448;7.646;2022-09-29T14:11:57;3.27;;;2.10;;
5831;SDS011;50943;51.448;7.646;2022-09-29T14:14:28;9.80;;;5.40;;
5831;SDS011;50943;51.448;7.646;2022-09-29T14:16:56;4.93;;;2.50;;
5831;SDS011;50943;51.448;7.646;2022-09-29T14:19:45;7.10;;;1.90;;
5831;SDS011;50943;51.448;7.646;2022-09-29T14:27:42;4.93;;;1.60;;
5831;SDS011;50943;51.448;7.646;2022-09-29T14:30:13;4.27;;;1.80;;
5831;SDS011;50943;51.448;7.646;2022-09-29T14:32:42;4.67;;;1.70;;
5831;SDS011;50943;51.448;7.646;2022-09-29T14:35:17;6.27;;;1.83;;
5831;SDS011;50943;51.448;7.646;2022-09-29T14:37:54;4.60;;;1.70;;
5831;SDS011;50943;51.448;7.646;2022-09-29T14:40:22;5.50;;;1.70;;
5831;SDS011;50943;51.448;7.646;2022-09-29T14:43:02;2.97;;;1.77;;
5831;SDS011;50943;51.448;7.646;2022-09-29T14:45:29;2.73;;;1.70;;
5831;SDS011;50943;51.448;7.646;2022-09-29T14:48:15;8.20;;;2.27;;
5831;SDS011;50943;51.448;7.646;2022-09-29T14:51:03;2.53;;;1.37;;
5831;SDS011;50943;51.448;7.646;2022-09-29T14:53:53;4.77;;;1.63;;
5831;SDS011;50943;51.448;7.646;2022-09-29T14:56:27;3.13;;;1.40;;
5831;SDS011;50943;51.448;7.646;2022-09-29T14:59:00;3.57;;;1.57;;
5831;SDS011;50943;51.448;7.646;2022-09-29T15:01:28;3.97;;;1.70;;
5831;SDS011;50943;51.448;7.646;2022-09-29T15:03:55;5.70;;;1.70;;
5831;SDS011;50943;51.448;7.646;2022-09-29T15:06:23;4.47;;;1.60;;
5831;SDS011;50943;51.448;7.646;2022-09-29T15:08:51;3.50;;;1.93;;
5831;SDS011;50943;51.448;7.646;2022-09-29T15:11:22;4.20;;;1.40;;
5831;SDS011;50943;51.448;7.646;2022-09-29T15:13:49;4.40;;;1.40;;
5831;SDS011;50943;51.448;7.646;2022-09-29T15:16:18;3.40;;;1.67;;
5831;SDS011;50943;51.448;7.646;2022-09-29T15:18:53;3.80;;;1.40;;
5831;SDS011;50943;51.448;7.646;2022-09-29T15:21:25;3.30;;;1.57;;
5831;SDS011;50943;51.448;7.646;2022-09-29T15:24:00;3.70;;;1.80;;
5831;SDS011;50943;51.448;7.646;2022-09-29T15:26:29;2.03;;;1.37;;
5831;SDS011;50943;51.448;7.646;2022-09-29T15:28:56;5.67;;;1.50;;
5831;SDS011;50943;51.448;7.646;2022-09-29T15:31:26;2.60;;;1.20;;
5831;SDS011;50943;51.448;7.646;2022-09-29T15:33:53;2.70;;;1.40;;